sensor_id;sensor_type;location;lat;lon;timestamp;temperature;humidity
22738;DHT22;11536;50.860;4.286;2022-11-15T00:01:34;12.50;99.90
22738;DHT22;11536;50.860;4.286;2022-11-15T00:04:03;12.60;99.90
22738;DHT22;11536;50.860;4.286;2022-11-15T00:06:28;12.60;99.90
22738;DHT22;11536;50.860;4.286;2022-11-15T00:08:54;12.60;99.90
22738;DHT22;11536;50.860;4.286;2022-11-15T00:11:20;12.60;99.90
22738;DHT22;11536;50.860;4.286;2022-11-15T00:13:45;12.60;99.90
22738;DHT22;11536;50.860;4.286;2022-11-15T00:16:11;12.60;99.90
22738;DHT22;11536;50.860;4.286;2022-11-15T00:18:38;12.60;99.90
22738;DHT22;11536;50.860;4.286;2022-11-15T00:21:06;12.70;99.90
22738;DHT22;11536;50.860;4.286;2022-11-15T00:23:33;12.70;99.90
22738;DHT22;11536;50.860;4.286;2022-11-15T00:25:58;12.70;99.90
22738;DHT22;11536;50.860;4.286;2022-11-15T00:28:25;12.70;99.90
22738;DHT22;11536;50.860;4.286;2022-11-15T00:30:51;12.70;99.90
22738;DHT22;11536;50.860;4.286;2022-11-15T00:33:17;12.70;99.90
22738;DHT22;11536;50.860;4.286;2022-11-15T00:35:42;12.70;99.90
22738;DHT22;11536;50.860;4.286;2022-11-15T00:38:08;12.70;99.90
22738;DHT22;11536;50.860;4.286;2022-11-15T00:40:34;12.70;99.90
22738;DHT22;11536;50.860;4.286;2022-11-15T00:42:59;12.80;99.90
22738;DHT22;11536;50.860;4.286;2022-11-15T00:45:25;12.80;99.90
22738;DHT22;11536;50.860;4.286;2022-11-15T00:47:51;12.80;99.90
22738;DHT22;11536;50.860;4.286;2022-11-15T00:50:18;12.80;99.90
22738;DHT22;11536;50.860;4.286;2022-11-15T00:52:44;12.80;99.90
22738;DHT22;11536;50.860;4.286;2022-11-15T00:55:16;12.80;99.90
22738;DHT22;11536;50.860;4.286;2022-11-15T00:57:43;12.80;99.90
22738;DHT22;11536;50.860;4.286;2022-11-15T01:00:09;12.80;99.90
22738;DHT22;11536;50.860;4.286;2022-11-15T01:02:35;12.80;99.90
22738;DHT22;11536;50.860;4.286;2022-11-15T01:05:00;12.80;99.90
22738;DHT22;11536;50.860;4.286;2022-11-15T01:07:26;12.90;99.90
22738;DHT22;11536;50.860;4.286;2022-11-15T01:09:51;12.80;99.90
22738;DHT22;11536;50.860;4.286;2022-11-15T01:12:17;12.90;99.90
22738;DHT22;11536;50.860;4.286;2022-11-15T01:14:43;12.90;99.90
22738;DHT22;11536;50.860;4.286;2022-11-15T01:17:08;12.90;99.90
22738;DHT22;11536;50.860;4.286;2022-11-15T01:19:34;12.90;99.90
22738;DHT22;11536;50.860;4.286;2022-11-15T01:21:59;12.90;99.90
22738;DHT22;11536;50.860;4.286;2022-11-15T01:24:25;12.90;99.90
22738;DHT22;11536;50.860;4.286;2022-11-15T01:26:51;12.90;99.90
22738;DHT22;11536;50.860;4.286;2022-11-15T01:29:16;12.90;99.90
22738;DHT22;11536;50.860;4.286;2022-11-15T01:31:42;12.90;99.90
22738;DHT22;11536;50.860;4.286;2022-11-15T01:34:07;12.90;99.90
22738;DHT22;11536;50.860;4.286;2022-11-15T01:36:33;12.90;99.90
22738;DHT22;11536;50.860;4.286;2022-11-15T01:38:59;12.90;99.90
22738;DHT22;11536;50.860;4.286;2022-11-15T01:41:32;12.90;99.90
22738;DHT22;11536;50.860;4.286;2022-11-15T01:46:56;13.00;99.90
22738;DHT22;11536;50.860;4.286;2022-11-15T01:49:23;12.90;99.90
22738;DHT22;11536;50.860;4.286;2022-11-15T01:51:49;13.00;99.90
22738;DHT22;11536;50.860;4.286;2022-11-15T01:54:17;13.00;99.90
22738;DHT22;11536;50.860;4.286;2022-11-15T01:57:01;13.00;99.90
22738;DHT22;11536;50.860;4.286;2022-11-15T01:59:29;13.00;99.90
22738;DHT22;11536;50.860;4.286;2022-11-15T02:01:55;13.00;99.90
22738;DHT22;11536;50.860;4.286;2022-11-15T02:04:28;13.00;99.90
22738;DHT22;11536;50.860;4.286;2022-11-15T02:06:54;13.00;99.90
22738;DHT22;11536;50.860;4.286;2022-11-15T02:09:20;12.90;99.90
22738;DHT22;11536;50.860;4.286;2022-11-15T02:11:47;12.90;99.90
22738;DHT22;11536;50.860;4.286;2022-11-15T02:14:15;13.00;99.90
22738;DHT22;11536;50.860;4.286;2022-11-15T02:30:21;13.00;99.90
22738;DHT22;11536;50.860;4.286;2022-11-15T02:32:57;12.90;99.90
22738;DHT22;11536;50.860;4.286;2022-11-15T02:35:48;12.90;99.90
22738;DHT22;11536;50.860;4.286;2022-11-15T02:41:09;13.00;99.90
22738;DHT22;11536;50.860;4.286;2022-11-15T02:46:37;12.90;99.90
22738;DHT22;11536;50.860;4.286;2022-11-15T02:49:24;12.90;99.90
22738;DHT22;11536;50.860;4.286;2022-11-15T02:51:52;12.90;99.90
22738;DHT22;11536;50.860;4.286;2022-11-15T02:54:21;12.90;99.90
22738;DHT22;11536;50.860;4.286;2022-11-15T02:56:48;12.90;99.90
22738;DHT22;11536;50.860;4.286;2022-11-15T03:02:06;12.90;99.90
22738;DHT22;11536;50.860;4.286;2022-11-15T03:08:25;12.90;99.90
22738;DHT22;11536;50.860;4.286;2022-11-15T03:10:46;12.90;99.90
22738;DHT22;11536;50.860;4.286;2022-11-15T03:13:24;12.90;99.90
22738;DHT22;11536;50.860;4.286;2022-11-15T03:16:03;12.90;99.90
22738;DHT22;11536;50.860;4.286;2022-11-15T03:18:35;12.90;99.90
22738;DHT22;11536;50.860;4.286;2022-11-15T03:21:05;12.90;99.90
22738;DHT22;11536;50.860;4.286;2022-11-15T03:23:33;12.90;99.90
22738;DHT22;11536;50.860;4.286;2022-11-15T03:26:00;12.80;99.90
22738;DHT22;11536;50.860;4.286;2022-11-15T03:31:15;12.90;99.90
22738;DHT22;11536;50.860;4.286;2022-11-15T03:34:02;12.80;99.90
22738;DHT22;11536;50.860;4.286;2022-11-15T03:36:31;12.80;99.90
22738;DHT22;11536;50.860;4.286;2022-11-15T03:39:01;12.80;99.90
22738;DHT22;11536;50.860;4.286;2022-11-15T03:41:46;12.80;99.90
22738;DHT22;11536;50.860;4.286;2022-11-15T03:44:30;12.80;99.90
22738;DHT22;11536;50.860;4.286;2022-11-15T03:47:04;12.70;99.90
22738;DHT22;11536;50.860;4.286;2022-11-15T03:49:38;12.70;99.90
22738;DHT22;11536;50.860;4.286;2022-11-15T03:52:04;12.70;99.90
22738;DHT22;11536;50.860;4.286;2022-11-15T03:54:31;12.70;99.90
22738;DHT22;11536;50.860;4.286;2022-11-15T03:56:56;12.70;99.90
22738;DHT22;11536;50.860;4.286;2022-11-15T03:59:22;12.70;99.90
22738;DHT22;11536;50.860;4.286;2022-11-15T04:01:48;12.70;99.90
22738;DHT22;11536;50.860;4.286;2022-11-15T04:04:13;12.70;99.90
22738;DHT22;11536;50.860;4.286;2022-11-15T04:06:39;12.70;99.90
22738;DHT22;11536;50.860;4.286;2022-11-15T04:09:05;12.70;99.90
22738;DHT22;11536;50.860;4.286;2022-11-15T04:11:30;12.70;99.90
22738;DHT22;11536;50.860;4.286;2022-11-15T04:13:56;12.60;99.90
22738;DHT22;11536;50.860;4.286;2022-11-15T04:16:21;12.60;99.90
22738;DHT22;11536;50.860;4.286;2022-11-15T04:18:47;12.60;99.90
22738;DHT22;11536;50.860;4.286;2022-11-15T04:21:35;12.60;99.90
22738;DHT22;11536;50.860;4.286;2022-11-15T04:24:19;12.70;99.90
22738;DHT22;11536;50.860;4.286;2022-11-15T04:26:45;12.60;99.90
22738;DHT22;11536;50.860;4.286;2022-11-15T04:29:10;12.50;99.90
22738;DHT22;11536;50.860;4.286;2022-11-15T04:31:54;12.50;99.90
22738;DHT22;11536;50.860;4.286;2022-11-15T04:34:20;12.50;99.90
22738;DHT22;11536;50.860;4.286;2022-11-15T04:36:45;12.50;99.90
22738;DHT22;11536;50.860;4.286;2022-11-15T04:39:29;12.50;99.90
22738;DHT22;11536;50.860;4.286;2022-11-15T04:41:55;12.40;99.90
22738;DHT22;11536;50.860;4.286;2022-11-15T04:44:20;12.40;99.90
22738;DHT22;11536;50.860;4.286;2022-11-15T04:46:46;12.40;99.90
22738;DHT22;11536;50.860;4.286;2022-11-15T04:49:11;12.40;99.90
22738;DHT22;11536;50.860;4.286;2022-11-15T04:51:37;12.40;99.90
22738;DHT22;11536;50.860;4.286;2022-11-15T04:54:03;12.40;99.90
22738;DHT22;11536;50.860;4.286;2022-11-15T04:56:28;12.40;99.90
22738;DHT22;11536;50.860;4.286;2022-11-15T04:58:54;12.30;99.90
22738;DHT22;11536;50.860;4.286;2022-11-15T05:01:19;12.30;99.90
22738;DHT22;11536;50.860;4.286;2022-11-15T05:03:45;12.30;99.90
22738;DHT22;11536;50.860;4.286;2022-11-15T05:06:29;12.30;99.90
22738;DHT22;11536;50.860;4.286;2022-11-15T05:08:55;12.30;99.90
22738;DHT22;11536;50.860;4.286;2022-11-15T05:11:21;12.20;99.90
22738;DHT22;11536;50.860;4.286;2022-11-15T05:13:47;12.20;99.90
22738;DHT22;11536;50.860;4.286;2022-11-15T05:16:12;12.20;99.90
22738;DHT22;11536;50.860;4.286;2022-11-15T05:18:38;12.20;99.90
22738;DHT22;11536;50.860;4.286;2022-11-15T05:21:09;12.20;99.90
22738;DHT22;11536;50.860;4.286;2022-11-15T05:23:35;12.10;99.90
22738;DHT22;11536;50.860;4.286;2022-11-15T05:26:01;12.10;99.90
22738;DHT22;11536;50.860;4.286;2022-11-15T05:28:27;12.10;99.90
22738;DHT22;11536;50.860;4.286;2022-11-15T05:30:57;12.10;99.90
22738;DHT22;11536;50.860;4.286;2022-11-15T05:33:24;12.00;99.90
22738;DHT22;11536;50.860;4.286;2022-11-15T05:35:54;12.00;99.90
22738;DHT22;11536;50.860;4.286;2022-11-15T05:38:23;12.10;99.90
22738;DHT22;11536;50.860;4.286;2022-11-15T05:40:49;11.90;99.90
22738;DHT22;11536;50.860;4.286;2022-11-15T05:43:14;12.00;99.90
22738;DHT22;11536;50.860;4.286;2022-11-15T05:45:40;11.90;99.90
22738;DHT22;11536;50.860;4.286;2022-11-15T05:48:07;11.90;99.90
22738;DHT22;11536;50.860;4.286;2022-11-15T05:50:33;11.90;99.90
22738;DHT22;11536;50.860;4.286;2022-11-15T05:53:00;11.90;99.90
22738;DHT22;11536;50.860;4.286;2022-11-15T05:55:26;11.90;99.90
22738;DHT22;11536;50.860;4.286;2022-11-15T05:57:52;11.90;99.90
22738;DHT22;11536;50.860;4.286;2022-11-15T06:00:18;11.80;99.90
22738;DHT22;11536;50.860;4.286;2022-11-15T06:02:43;11.80;99.90
22738;DHT22;11536;50.860;4.286;2022-11-15T06:05:09;11.80;99.90
22738;DHT22;11536;50.860;4.286;2022-11-15T06:07:35;11.80;99.90
22738;DHT22;11536;50.860;4.286;2022-11-15T06:10:00;11.70;99.90
22738;DHT22;11536;50.860;4.286;2022-11-15T06:12:26;11.70;99.90
22738;DHT22;11536;50.860;4.286;2022-11-15T06:14:51;11.70;99.90
22738;DHT22;11536;50.860;4.286;2022-11-15T06:17:17;11.70;99.90
22738;DHT22;11536;50.860;4.286;2022-11-15T06:19:42;11.70;99.90
22738;DHT22;11536;50.860;4.286;2022-11-15T06:22:08;11.70;99.90
22738;DHT22;11536;50.860;4.286;2022-11-15T06:24:35;11.70;99.90
22738;DHT22;11536;50.860;4.286;2022-11-15T06:27:05;11.70;99.90
22738;DHT22;11536;50.860;4.286;2022-11-15T06:29:31;11.70;99.90
22738;DHT22;11536;50.860;4.286;2022-11-15T06:31:57;11.70;99.90
22738;DHT22;11536;50.860;4.286;2022-11-15T06:34:23;11.70;99.90
22738;DHT22;11536;50.860;4.286;2022-11-15T06:36:49;11.70;99.90
22738;DHT22;11536;50.860;4.286;2022-11-15T06:39:15;11.60;99.90
22738;DHT22;11536;50.860;4.286;2022-11-15T06:41:40;11.60;99.90
22738;DHT22;11536;50.860;4.286;2022-11-15T06:44:06;11.60;99.90
22738;DHT22;11536;50.860;4.286;2022-11-15T06:46:31;11.60;99.90
22738;DHT22;11536;50.860;4.286;2022-11-15T06:48:57;11.60;99.90
22738;DHT22;11536;50.860;4.286;2022-11-15T06:51:22;11.50;99.90
22738;DHT22;11536;50.860;4.286;2022-11-15T06:53:48;11.50;99.90
22738;DHT22;11536;50.860;4.286;2022-11-15T06:56:13;11.50;99.90
22738;DHT22;11536;50.860;4.286;2022-11-15T06:58:39;11.50;99.90
22738;DHT22;11536;50.860;4.286;2022-11-15T07:01:07;11.60;99.90
22738;DHT22;11536;50.860;4.286;2022-11-15T07:03:38;11.40;99.90
22738;DHT22;11536;50.860;4.286;2022-11-15T07:06:04;11.40;99.90
22738;DHT22;11536;50.860;4.286;2022-11-15T07:08:30;11.40;99.90
22738;DHT22;11536;50.860;4.286;2022-11-15T07:11:01;11.50;99.90
22738;DHT22;11536;50.860;4.286;2022-11-15T07:13:28;11.40;99.90
22738;DHT22;11536;50.860;4.286;2022-11-15T07:15:54;11.40;99.90
22738;DHT22;11536;50.860;4.286;2022-11-15T07:18:20;11.40;99.90
22738;DHT22;11536;50.860;4.286;2022-11-15T07:20:46;11.40;99.90
22738;DHT22;11536;50.860;4.286;2022-11-15T07:23:12;11.40;99.90
22738;DHT22;11536;50.860;4.286;2022-11-15T07:25:38;11.40;99.90
22738;DHT22;11536;50.860;4.286;2022-11-15T07:28:03;11.30;99.90
22738;DHT22;11536;50.860;4.286;2022-11-15T07:30:29;11.30;99.90
22738;DHT22;11536;50.860;4.286;2022-11-15T07:32:59;11.40;99.90
22738;DHT22;11536;50.860;4.286;2022-11-15T07:35:26;11.30;99.90
22738;DHT22;11536;50.860;4.286;2022-11-15T07:38:00;11.30;99.90
22738;DHT22;11536;50.860;4.286;2022-11-15T07:40:27;11.30;99.90
22738;DHT22;11536;50.860;4.286;2022-11-15T07:42:59;11.30;99.90
22738;DHT22;11536;50.860;4.286;2022-11-15T07:45:25;11.30;99.90
22738;DHT22;11536;50.860;4.286;2022-11-15T07:47:52;11.30;99.90
22738;DHT22;11536;50.860;4.286;2022-11-15T07:50:17;11.30;99.90
22738;DHT22;11536;50.860;4.286;2022-11-15T07:52:44;11.30;99.90
22738;DHT22;11536;50.860;4.286;2022-11-15T07:55:10;11.30;99.90
22738;DHT22;11536;50.860;4.286;2022-11-15T07:57:36;11.30;99.90
22738;DHT22;11536;50.860;4.286;2022-11-15T08:00:05;11.20;99.90
22738;DHT22;11536;50.860;4.286;2022-11-15T08:02:31;11.30;99.90
22738;DHT22;11536;50.860;4.286;2022-11-15T08:04:57;11.20;99.90
22738;DHT22;11536;50.860;4.286;2022-11-15T08:07:22;11.20;99.90
22738;DHT22;11536;50.860;4.286;2022-11-15T08:09:48;11.30;99.90
22738;DHT22;11536;50.860;4.286;2022-11-15T08:12:14;11.30;99.90
22738;DHT22;11536;50.860;4.286;2022-11-15T08:14:40;11.30;99.90
22738;DHT22;11536;50.860;4.286;2022-11-15T08:17:05;11.30;99.90
22738;DHT22;11536;50.860;4.286;2022-11-15T08:19:31;11.20;99.90
22738;DHT22;11536;50.860;4.286;2022-11-15T08:21:57;11.30;99.90
22738;DHT22;11536;50.860;4.286;2022-11-15T08:24:22;11.20;99.90
22738;DHT22;11536;50.860;4.286;2022-11-15T08:26:48;11.30;99.90
22738;DHT22;11536;50.860;4.286;2022-11-15T08:29:13;11.20;99.90
22738;DHT22;11536;50.860;4.286;2022-11-15T08:31:39;11.20;99.90
22738;DHT22;11536;50.860;4.286;2022-11-15T08:34:05;11.20;99.90
22738;DHT22;11536;50.860;4.286;2022-11-15T08:36:31;11.20;99.90
22738;DHT22;11536;50.860;4.286;2022-11-15T08:38:57;11.20;99.90
22738;DHT22;11536;50.860;4.286;2022-11-15T08:41:34;11.30;99.90
22738;DHT22;11536;50.860;4.286;2022-11-15T08:44:01;11.30;99.90
22738;DHT22;11536;50.860;4.286;2022-11-15T08:46:27;11.30;99.90
22738;DHT22;11536;50.860;4.286;2022-11-15T08:48:52;11.30;99.90
22738;DHT22;11536;50.860;4.286;2022-11-15T08:51:18;11.30;99.90
22738;DHT22;11536;50.860;4.286;2022-11-15T08:53:44;11.30;99.90
22738;DHT22;11536;50.860;4.286;2022-11-15T08:56:11;11.30;99.90
22738;DHT22;11536;50.860;4.286;2022-11-15T08:58:37;11.40;99.90
22738;DHT22;11536;50.860;4.286;2022-11-15T09:01:03;11.40;99.90
22738;DHT22;11536;50.860;4.286;2022-11-15T09:03:29;11.40;99.90
22738;DHT22;11536;50.860;4.286;2022-11-15T09:05:56;11.40;99.90
22738;DHT22;11536;50.860;4.286;2022-11-15T09:08:22;11.50;99.90
22738;DHT22;11536;50.860;4.286;2022-11-15T09:10:48;11.50;99.90
22738;DHT22;11536;50.860;4.286;2022-11-15T09:13:13;11.50;99.90
22738;DHT22;11536;50.860;4.286;2022-11-15T09:15:39;11.50;99.90
22738;DHT22;11536;50.860;4.286;2022-11-15T09:18:05;11.50;99.90
22738;DHT22;11536;50.860;4.286;2022-11-15T09:20:30;11.50;99.90
22738;DHT22;11536;50.860;4.286;2022-11-15T09:23:03;11.50;99.90
22738;DHT22;11536;50.860;4.286;2022-11-15T09:25:30;11.60;99.90
22738;DHT22;11536;50.860;4.286;2022-11-15T09:27:56;11.60;99.90
22738;DHT22;11536;50.860;4.286;2022-11-15T09:30:23;11.70;99.90
22738;DHT22;11536;50.860;4.286;2022-11-15T09:32:49;11.70;99.90
22738;DHT22;11536;50.860;4.286;2022-11-15T09:35:15;11.80;99.90
22738;DHT22;11536;50.860;4.286;2022-11-15T09:37:41;11.80;99.90
22738;DHT22;11536;50.860;4.286;2022-11-15T09:40:11;11.80;99.90
22738;DHT22;11536;50.860;4.286;2022-11-15T09:42:50;11.80;99.90
22738;DHT22;11536;50.860;4.286;2022-11-15T09:45:26;11.90;99.90
22738;DHT22;11536;50.860;4.286;2022-11-15T09:48:17;11.90;99.90
22738;DHT22;11536;50.860;4.286;2022-11-15T09:50:51;12.00;99.90
22738;DHT22;11536;50.860;4.286;2022-11-15T09:53:29;12.00;99.90
22738;DHT22;11536;50.860;4.286;2022-11-15T09:56:19;12.10;99.90
22738;DHT22;11536;50.860;4.286;2022-11-15T10:02:16;12.10;99.90
22738;DHT22;11536;50.860;4.286;2022-11-15T10:04:44;12.10;99.90
22738;DHT22;11536;50.860;4.286;2022-11-15T10:12:08;12.20;99.90
22738;DHT22;11536;50.860;4.286;2022-11-15T10:14:35;12.30;99.90
22738;DHT22;11536;50.860;4.286;2022-11-15T10:20:23;12.30;99.90
22738;DHT22;11536;50.860;4.286;2022-11-15T10:23:00;12.40;99.90
22738;DHT22;11536;50.860;4.286;2022-11-15T10:25:31;12.40;99.90
22738;DHT22;11536;50.860;4.286;2022-11-15T10:30:51;12.50;99.90
22738;DHT22;11536;50.860;4.286;2022-11-15T10:35:48;12.50;99.90
22738;DHT22;11536;50.860;4.286;2022-11-15T10:38:13;12.60;99.90
22738;DHT22;11536;50.860;4.286;2022-11-15T10:40:40;12.60;99.90
22738;DHT22;11536;50.860;4.286;2022-11-15T10:45:34;12.70;99.90
22738;DHT22;11536;50.860;4.286;2022-11-15T10:50:49;12.70;99.90
22738;DHT22;11536;50.860;4.286;2022-11-15T10:53:26;12.80;99.90
22738;DHT22;11536;50.860;4.286;2022-11-15T10:55:55;12.80;99.90
22738;DHT22;11536;50.860;4.286;2022-11-15T10:58:33;12.90;99.90
22738;DHT22;11536;50.860;4.286;2022-11-15T11:01:15;12.90;99.90
22738;DHT22;11536;50.860;4.286;2022-11-15T11:03:43;12.90;99.90
22738;DHT22;11536;50.860;4.286;2022-11-15T11:06:18;12.90;99.90
22738;DHT22;11536;50.860;4.286;2022-11-15T11:09:04;12.90;99.90
22738;DHT22;11536;50.860;4.286;2022-11-15T11:11:47;12.90;99.90
22738;DHT22;11536;50.860;4.286;2022-11-15T11:22:30;13.00;99.90
22738;DHT22;11536;50.860;4.286;2022-11-15T11:27:59;13.10;99.90
22738;DHT22;11536;50.860;4.286;2022-11-15T11:33:38;13.20;99.90
22738;DHT22;11536;50.860;4.286;2022-11-15T11:38:59;13.30;99.90
22738;DHT22;11536;50.860;4.286;2022-11-15T11:47:22;13.30;99.90
22738;DHT22;11536;50.860;4.286;2022-11-15T11:49:56;13.40;99.90
22738;DHT22;11536;50.860;4.286;2022-11-15T11:52:33;13.30;99.90
22738;DHT22;11536;50.860;4.286;2022-11-15T11:55:12;13.40;99.90
22738;DHT22;11536;50.860;4.286;2022-11-15T12:00:26;13.40;99.90
22738;DHT22;11536;50.860;4.286;2022-11-15T12:08:27;13.50;99.90
22738;DHT22;11536;50.860;4.286;2022-11-15T12:11:19;13.50;99.90
22738;DHT22;11536;50.860;4.286;2022-11-15T12:13:49;13.50;99.90
22738;DHT22;11536;50.860;4.286;2022-11-15T12:16:23;13.50;99.90
22738;DHT22;11536;50.860;4.286;2022-11-15T12:18:53;13.50;99.90
22738;DHT22;11536;50.860;4.286;2022-11-15T12:24:39;13.60;99.90
22738;DHT22;11536;50.860;4.286;2022-11-15T12:30:02;13.60;99.90
22738;DHT22;11536;50.860;4.286;2022-11-15T12:32:34;13.60;99.90
22738;DHT22;11536;50.860;4.286;2022-11-15T12:35:03;13.70;99.90
22738;DHT22;11536;50.860;4.286;2022-11-15T12:41:24;13.70;99.90
22738;DHT22;11536;50.860;4.286;2022-11-15T12:43:40;13.70;99.90
22738;DHT22;11536;50.860;4.286;2022-11-15T12:46:12;13.80;99.90
22738;DHT22;11536;50.860;4.286;2022-11-15T12:51:04;13.70;99.90
22738;DHT22;11536;50.860;4.286;2022-11-15T12:53:34;13.80;99.90
22738;DHT22;11536;50.860;4.286;2022-11-15T12:58:58;13.80;99.90
22738;DHT22;11536;50.860;4.286;2022-11-15T13:06:54;13.90;99.90
22738;DHT22;11536;50.860;4.286;2022-11-15T13:12:08;14.00;99.90
22738;DHT22;11536;50.860;4.286;2022-11-15T13:17:30;14.00;99.90
22738;DHT22;11536;50.860;4.286;2022-11-15T13:22:52;14.10;99.90
22738;DHT22;11536;50.860;4.286;2022-11-15T13:28:21;14.10;99.90
22738;DHT22;11536;50.860;4.286;2022-11-15T13:33:32;14.10;99.90
22738;DHT22;11536;50.860;4.286;2022-11-15T13:36:13;14.10;99.90
22738;DHT22;11536;50.860;4.286;2022-11-15T13:38:40;14.20;99.90
22738;DHT22;11536;50.860;4.286;2022-11-15T13:41:20;14.20;99.90
22738;DHT22;11536;50.860;4.286;2022-11-15T13:43:47;14.20;99.90
22738;DHT22;11536;50.860;4.286;2022-11-15T13:46:20;14.10;99.90
22738;DHT22;11536;50.860;4.286;2022-11-15T13:48:50;14.20;99.90
22738;DHT22;11536;50.860;4.286;2022-11-15T13:51:37;14.20;99.90
22738;DHT22;11536;50.860;4.286;2022-11-15T13:57:02;14.20;99.90
22738;DHT22;11536;50.860;4.286;2022-11-15T13:59:46;14.20;99.90
22738;DHT22;11536;50.860;4.286;2022-11-15T14:02:15;14.20;99.90
22738;DHT22;11536;50.860;4.286;2022-11-15T14:04:54;14.20;99.90
22738;DHT22;11536;50.860;4.286;2022-11-15T14:07:23;14.20;99.90
22738;DHT22;11536;50.860;4.286;2022-11-15T14:09:49;14.20;99.90
22738;DHT22;11536;50.860;4.286;2022-11-15T14:12:29;14.20;99.90
22738;DHT22;11536;50.860;4.286;2022-11-15T14:14:55;14.20;99.90
22738;DHT22;11536;50.860;4.286;2022-11-15T14:17:41;14.20;99.90
22738;DHT22;11536;50.860;4.286;2022-11-15T14:23:01;14.20;99.90
22738;DHT22;11536;50.860;4.286;2022-11-15T14:25:34;14.20;99.90
22738;DHT22;11536;50.860;4.286;2022-11-15T14:30:35;14.10;99.90
22738;DHT22;11536;50.860;4.286;2022-11-15T14:33:01;14.10;99.90
22738;DHT22;11536;50.860;4.286;2022-11-15T14:35:27;14.10;99.90
22738;DHT22;11536;50.860;4.286;2022-11-15T14:37:52;14.10;99.90
22738;DHT22;11536;50.860;4.286;2022-11-15T14:40:21;14.00;99.90
22738;DHT22;11536;50.860;4.286;2022-11-15T14:42:48;14.00;99.90
22738;DHT22;11536;50.860;4.286;2022-11-15T14:45:17;14.00;99.90
22738;DHT22;11536;50.860;4.286;2022-11-15T14:47:43;14.00;99.90
22738;DHT22;11536;50.860;4.286;2022-11-15T14:50:17;14.00;99.90
22738;DHT22;11536;50.860;4.286;2022-11-15T14:52:44;14.00;99.90
22738;DHT22;11536;50.860;4.286;2022-11-15T14:55:25;13.90;99.90
22738;DHT22;11536;50.860;4.286;2022-11-15T14:57:53;13.90;99.90
22738;DHT22;11536;50.860;4.286;2022-11-15T15:00:19;13.90;99.90
22738;DHT22;11536;50.860;4.286;2022-11-15T15:02:46;13.90;99.90
22738;DHT22;11536;50.860;4.286;2022-11-15T15:05:20;13.90;99.90
22738;DHT22;11536;50.860;4.286;2022-11-15T15:07:46;13.90;99.90
22738;DHT22;11536;50.860;4.286;2022-11-15T15:10:13;13.80;99.90
22738;DHT22;11536;50.860;4.286;2022-11-15T15:12:40;13.80;99.90
22738;DHT22;11536;50.860;4.286;2022-11-15T15:15:09;13.80;99.90
22738;DHT22;11536;50.860;4.286;2022-11-15T15:17:37;13.80;99.90
22738;DHT22;11536;50.860;4.286;2022-11-15T15:20:02;13.80;99.90
22738;DHT22;11536;50.860;4.286;2022-11-15T15:22:29;13.80;99.90
22738;DHT22;11536;50.860;4.286;2022-11-15T15:24:55;13.80;99.90
22738;DHT22;11536;50.860;4.286;2022-11-15T15:27:21;13.70;99.90
22738;DHT22;11536;50.860;4.286;2022-11-15T15:29:46;13.80;99.90
22738;DHT22;11536;50.860;4.286;2022-11-15T15:32:12;13.70;99.90
22738;DHT22;11536;50.860;4.286;2022-11-15T15:34:38;13.80;99.90
22738;DHT22;11536;50.860;4.286;2022-11-15T15:37:13;13.70;99.90
22738;DHT22;11536;50.860;4.286;2022-11-15T15:39:44;13.70;99.90
22738;DHT22;11536;50.860;4.286;2022-11-15T15:42:10;13.70;99.90
22738;DHT22;11536;50.860;4.286;2022-11-15T15:44:36;13.70;99.90
22738;DHT22;11536;50.860;4.286;2022-11-15T15:47:03;13.60;99.90
22738;DHT22;11536;50.860;4.286;2022-11-15T15:49:32;13.60;99.90
22738;DHT22;11536;50.860;4.286;2022-11-15T15:51:58;13.60;99.90
22738;DHT22;11536;50.860;4.286;2022-11-15T15:54:24;13.60;99.90
22738;DHT22;11536;50.860;4.286;2022-11-15T15:56:50;13.60;99.90
22738;DHT22;11536;50.860;4.286;2022-11-15T15:59:16;13.70;99.90
22738;DHT22;11536;50.860;4.286;2022-11-15T16:01:41;13.70;99.90
22738;DHT22;11536;50.860;4.286;2022-11-15T16:04:07;13.60;99.90
22738;DHT22;11536;50.860;4.286;2022-11-15T16:06:36;13.60;99.90
22738;DHT22;11536;50.860;4.286;2022-11-15T16:09:03;13.60;99.90
22738;DHT22;11536;50.860;4.286;2022-11-15T16:11:29;13.60;99.90
22738;DHT22;11536;50.860;4.286;2022-11-15T16:13:55;13.60;99.90
22738;DHT22;11536;50.860;4.286;2022-11-15T16:16:21;13.60;99.90
22738;DHT22;11536;50.860;4.286;2022-11-15T16:18:48;13.60;99.90
22738;DHT22;11536;50.860;4.286;2022-11-15T16:21:13;13.60;99.90
22738;DHT22;11536;50.860;4.286;2022-11-15T16:23:40;13.60;99.90
22738;DHT22;11536;50.860;4.286;2022-11-15T16:26:32;13.60;99.90
22738;DHT22;11536;50.860;4.286;2022-11-15T16:28:58;13.60;99.90
22738;DHT22;11536;50.860;4.286;2022-11-15T16:31:24;13.60;99.90
22738;DHT22;11536;50.860;4.286;2022-11-15T16:33:49;13.60;99.90
22738;DHT22;11536;50.860;4.286;2022-11-15T16:36:21;13.60;99.90
22738;DHT22;11536;50.860;4.286;2022-11-15T16:38:48;13.60;99.90
22738;DHT22;11536;50.860;4.286;2022-11-15T16:41:14;13.60;99.90
22738;DHT22;11536;50.860;4.286;2022-11-15T16:43:52;13.60;99.90
22738;DHT22;11536;50.860;4.286;2022-11-15T16:46:28;13.60;99.90
22738;DHT22;11536;50.860;4.286;2022-11-15T16:48:54;13.60;99.90
22738;DHT22;11536;50.860;4.286;2022-11-15T16:51:20;13.60;99.90
22738;DHT22;11536;50.860;4.286;2022-11-15T16:53:46;13.60;99.90
22738;DHT22;11536;50.860;4.286;2022-11-15T16:56:27;13.60;99.90
22738;DHT22;11536;50.860;4.286;2022-11-15T16:58:57;13.60;99.90
22738;DHT22;11536;50.860;4.286;2022-11-15T17:01:25;13.60;99.90
22738;DHT22;11536;50.860;4.286;2022-11-15T17:03:51;13.60;99.90
22738;DHT22;11536;50.860;4.286;2022-11-15T17:06:17;13.60;99.90
22738;DHT22;11536;50.860;4.286;2022-11-15T17:08:44;13.50;99.90
22738;DHT22;11536;50.860;4.286;2022-11-15T17:11:17;13.60;99.90
22738;DHT22;11536;50.860;4.286;2022-11-15T17:13:43;13.60;99.90
22738;DHT22;11536;50.860;4.286;2022-11-15T17:16:13;13.50;99.90
22738;DHT22;11536;50.860;4.286;2022-11-15T17:18:40;13.50;99.90
22738;DHT22;11536;50.860;4.286;2022-11-15T17:21:09;13.60;99.90
22738;DHT22;11536;50.860;4.286;2022-11-15T17:23:36;13.50;99.90
22738;DHT22;11536;50.860;4.286;2022-11-15T17:26:02;13.50;99.90
22738;DHT22;11536;50.860;4.286;2022-11-15T17:28:30;13.50;99.90
22738;DHT22;11536;50.860;4.286;2022-11-15T17:30:56;13.60;99.90
22738;DHT22;11536;50.860;4.286;2022-11-15T17:33:23;13.50;99.90
22738;DHT22;11536;50.860;4.286;2022-11-15T17:35:59;13.50;99.90
22738;DHT22;11536;50.860;4.286;2022-11-15T17:38:26;13.50;99.90
22738;DHT22;11536;50.860;4.286;2022-11-15T17:41:09;13.50;99.90
22738;DHT22;11536;50.860;4.286;2022-11-15T17:43:35;13.50;99.90
22738;DHT22;11536;50.860;4.286;2022-11-15T17:46:04;13.50;99.90
22738;DHT22;11536;50.860;4.286;2022-11-15T17:48:30;13.50;99.90